Airfield :
LOGIN :

Register | Disclaimer

   EN    FR    IT 

 










Legend :    VFR   Marginal VFR   IFR   Intensive IFR   Very Intensive IFR
Visi :
Ceiling :
>= 8 km
>= 3000ft
5 to 8 km
1000 to 3000 ft
1500m to 5 km
500 to 1000 ft
800 to 1500m
200 to 500 ft
< 800m
< 200 ft
Symbols :   Thunderstorms  Fog  Heavy snow  Heavy precipitations  Wind > 20 kt
SIGMETs :     Misc.  Thunderstorms  Icing  Turbulence  Mountain Waves  Volcanic Ashes







- Airport Elevation : 160 ft
- IATA code : FMO


EDDG - Münster Osnabrück Int.

CURRENT METAR :
  • 201320Z 22010KT 180V250 9999 FEW030 10/03 Q1022 NOSIG

EXPIRED METARs :
  • 201250Z 22008KT 180V250 9999 FEW030 10/03 Q1022 NOSIG
  • 201220Z 23008KT 190V250 9999 FEW035 10/03 Q1022 NOSIG
  • 201150Z 23008KT 200V270 CAVOK 10/02 Q1022 NOSIG
  • 201120Z 23009KT 200V260 CAVOK 09/02 Q1022 NOSIG
  • 201050Z 21007KT 180V250 CAVOK 09/02 Q1023 NOSIG

TAF TAF EDDG
Valid from the 20 at 12:00 until the 21 at 12:00 UTC


201100Z 2012/2112 21005KT CAVOK
BECMG 2109/2112 25010KT
No reported NOTAMs for that airfield.



MET'MAP, your aeronautical weather chart ! - Copyright ORBIFLY December 2007 - Disclaimer

ORBIFLY MET'MAP TEAM :

Programming & Development : Alexandra Zaïnal
Concept & Development : Baudouin d'Aumeries
Co-Development & Prog : Marc-Olivier Méhu
Technical & hardware support : Manuel Goepfert

Contact : metmap@orbifly.com




SOURCES & CREDITS :

   NOAA